sensor_id;sensor_type;location;lat;lon;timestamp;pressure;altitude;pressure_sealevel;temperature;humidity
41467;BME280;27205;53.690;19.948;2023-04-07T00:02:41;100159.61;;;4.82;80.93
41467;BME280;27205;53.690;19.948;2023-04-07T00:07:46;100154.77;;;4.89;80.60
41467;BME280;27205;53.690;19.948;2023-04-07T00:12:58;100154.65;;;4.94;80.84
41467;BME280;27205;53.690;19.948;2023-04-07T00:18:02;100155.14;;;4.93;81.19
41467;BME280;27205;53.690;19.948;2023-04-07T00:23:06;100155.67;;;4.91;81.67
41467;BME280;27205;53.690;19.948;2023-04-07T00:28:09;100152.35;;;4.89;81.57
41467;BME280;27205;53.690;19.948;2023-04-07T00:33:13;100152.04;;;4.93;81.65
41467;BME280;27205;53.690;19.948;2023-04-07T00:38:16;100146.72;;;4.90;81.97
41467;BME280;27205;53.690;19.948;2023-04-07T00:43:20;100142.81;;;4.87;82.38
41467;BME280;27205;53.690;19.948;2023-04-07T00:48:23;100134.04;;;4.89;82.70
41467;BME280;27205;53.690;19.948;2023-04-07T00:53:27;100134.67;;;4.88;82.94
41467;BME280;27205;53.690;19.948;2023-04-07T00:58:31;100133.86;;;4.83;83.18
41467;BME280;27205;53.690;19.948;2023-04-07T01:03:45;100128.40;;;4.84;83.50
41467;BME280;27205;53.690;19.948;2023-04-07T01:09:01;100127.34;;;4.88;83.44
41467;BME280;27205;53.690;19.948;2023-04-07T01:14:06;100123.47;;;4.91;83.28
41467;BME280;27205;53.690;19.948;2023-04-07T01:19:15;100122.13;;;4.94;83.41
41467;BME280;27205;53.690;19.948;2023-04-07T01:30:11;100122.08;;;4.96;84.10
41467;BME280;27205;53.690;19.948;2023-04-07T01:35:15;100115.22;;;4.99;84.33
41467;BME280;27205;53.690;19.948;2023-04-07T01:40:20;100111.52;;;5.04;83.89
41467;BME280;27205;53.690;19.948;2023-04-07T01:45:25;100106.92;;;5.07;84.04
41467;BME280;27205;53.690;19.948;2023-04-07T01:50:30;100104.83;;;5.09;84.42
41467;BME280;27205;53.690;19.948;2023-04-07T01:55:33;100103.34;;;5.12;83.89
41467;BME280;27205;53.690;19.948;2023-04-07T02:00:37;100096.66;;;5.15;84.25
41467;BME280;27205;53.690;19.948;2023-04-07T02:05:41;100102.59;;;5.21;84.13
41467;BME280;27205;53.690;19.948;2023-04-07T02:10:45;100103.43;;;5.24;84.40
41467;BME280;27205;53.690;19.948;2023-04-07T02:15:51;100098.86;;;5.23;84.71
41467;BME280;27205;53.690;19.948;2023-04-07T02:20:56;100099.33;;;5.23;84.70
41467;BME280;27205;53.690;19.948;2023-04-07T02:26:00;100098.84;;;5.26;84.85
41467;BME280;27205;53.690;19.948;2023-04-07T02:31:04;100094.15;;;5.26;84.88
41467;BME280;27205;53.690;19.948;2023-04-07T02:36:07;100093.88;;;5.31;84.99
41467;BME280;27205;53.690;19.948;2023-04-07T02:41:11;100090.55;;;5.33;84.83
41467;BME280;27205;53.690;19.948;2023-04-07T02:46:14;100088.77;;;5.35;85.03
41467;BME280;27205;53.690;19.948;2023-04-07T02:51:18;100087.20;;;5.39;85.23
41467;BME280;27205;53.690;19.948;2023-04-07T02:56:22;100085.86;;;5.42;85.50
41467;BME280;27205;53.690;19.948;2023-04-07T03:01:25;100074.45;;;5.45;85.64
41467;BME280;27205;53.690;19.948;2023-04-07T03:06:30;100075.06;;;5.49;85.47
41467;BME280;27205;53.690;19.948;2023-04-07T03:11:33;100078.10;;;5.49;85.79
41467;BME280;27205;53.690;19.948;2023-04-07T03:16:38;100078.48;;;5.46;85.75
41467;BME280;27205;53.690;19.948;2023-04-07T03:21:41;100072.90;;;5.48;86.30
41467;BME280;27205;53.690;19.948;2023-04-07T03:26:45;100084.35;;;5.51;86.16
41467;BME280;27205;53.690;19.948;2023-04-07T03:31:48;100082.30;;;5.55;86.12
41467;BME280;27205;53.690;19.948;2023-04-07T03:36:52;100078.45;;;5.56;86.34
41467;BME280;27205;53.690;19.948;2023-04-07T03:41:56;100087.85;;;5.57;86.09
41467;BME280;27205;53.690;19.948;2023-04-07T03:46:59;100093.33;;;5.60;86.41
41467;BME280;27205;53.690;19.948;2023-04-07T03:52:04;100092.34;;;5.64;86.59
41467;BME280;27205;53.690;19.948;2023-04-07T03:57:07;100086.23;;;5.67;86.33
41467;BME280;27205;53.690;19.948;2023-04-07T04:02:11;100086.48;;;5.70;86.50
41467;BME280;27205;53.690;19.948;2023-04-07T04:07:14;100086.45;;;5.71;86.62
41467;BME280;27205;53.690;19.948;2023-04-07T04:12:18;100082.36;;;5.74;86.65
41467;BME280;27205;53.690;19.948;2023-04-07T04:17:22;100090.33;;;5.75;86.76
41467;BME280;27205;53.690;19.948;2023-04-07T04:22:25;100095.38;;;5.78;86.78
41467;BME280;27205;53.690;19.948;2023-04-07T04:27:29;100089.38;;;5.84;87.03
41467;BME280;27205;53.690;19.948;2023-04-07T04:32:34;100094.33;;;5.86;86.73
41467;BME280;27205;53.690;19.948;2023-04-07T04:37:37;100098.77;;;5.91;87.33
41467;BME280;27205;53.690;19.948;2023-04-07T04:42:41;100100.80;;;5.88;87.37
41467;BME280;27205;53.690;19.948;2023-04-07T04:47:44;100103.02;;;5.90;87.63
41467;BME280;27205;53.690;19.948;2023-04-07T04:52:48;100109.13;;;6.00;87.67
41467;BME280;27205;53.690;19.948;2023-04-07T04:57:52;100109.98;;;6.11;87.51
41467;BME280;27205;53.690;19.948;2023-04-07T05:02:56;100118.59;;;6.18;87.57
41467;BME280;27205;53.690;19.948;2023-04-07T05:07:59;100110.98;;;6.29;87.18
41467;BME280;27205;53.690;19.948;2023-04-07T05:13:03;100110.38;;;6.34;87.49
41467;BME280;27205;53.690;19.948;2023-04-07T05:18:06;100111.17;;;6.46;87.37
41467;BME280;27205;53.690;19.948;2023-04-07T05:23:10;100119.52;;;6.54;87.38
41467;BME280;27205;53.690;19.948;2023-04-07T05:28:13;100117.34;;;6.66;87.06
41467;BME280;27205;53.690;19.948;2023-04-07T05:33:17;100110.75;;;6.76;87.15
41467;BME280;27205;53.690;19.948;2023-04-07T05:38:20;100107.56;;;6.85;87.10
41467;BME280;27205;53.690;19.948;2023-04-07T05:43:24;100106.61;;;6.92;87.09
41467;BME280;27205;53.690;19.948;2023-04-07T05:48:27;100107.38;;;6.98;87.21
41467;BME280;27205;53.690;19.948;2023-04-07T05:53:31;100109.02;;;6.98;87.01
41467;BME280;27205;53.690;19.948;2023-04-07T05:58:34;100105.38;;;7.03;87.30
41467;BME280;27205;53.690;19.948;2023-04-07T06:03:38;100107.86;;;7.04;87.25
41467;BME280;27205;53.690;19.948;2023-04-07T06:08:43;100107.67;;;7.07;87.44
41467;BME280;27205;53.690;19.948;2023-04-07T06:13:47;100118.41;;;7.19;86.99
41467;BME280;27205;53.690;19.948;2023-04-07T06:18:50;100122.53;;;7.24;87.16
41467;BME280;27205;53.690;19.948;2023-04-07T06:23:54;100121.73;;;7.32;87.15
41467;BME280;27205;53.690;19.948;2023-04-07T06:28:58;100123.39;;;7.33;87.06
41467;BME280;27205;53.690;19.948;2023-04-07T06:34:02;100129.95;;;7.36;87.27
41467;BME280;27205;53.690;19.948;2023-04-07T06:39:05;100126.35;;;7.45;87.43
41467;BME280;27205;53.690;19.948;2023-04-07T06:44:09;100126.31;;;7.59;87.00
41467;BME280;27205;53.690;19.948;2023-04-07T06:49:15;100128.23;;;7.63;87.03
41467;BME280;27205;53.690;19.948;2023-04-07T06:54:19;100124.42;;;7.62;87.12
41467;BME280;27205;53.690;19.948;2023-04-07T06:59:23;100118.13;;;7.63;87.00
41467;BME280;27205;53.690;19.948;2023-04-07T07:04:27;100117.95;;;7.65;87.33
41467;BME280;27205;53.690;19.948;2023-04-07T07:09:30;100115.71;;;7.75;87.38
41467;BME280;27205;53.690;19.948;2023-04-07T07:14:34;100114.48;;;7.91;86.95
41467;BME280;27205;53.690;19.948;2023-04-07T07:19:37;100111.49;;;7.96;86.95
41467;BME280;27205;53.690;19.948;2023-04-07T07:24:41;100118.69;;;8.09;86.72
41467;BME280;27205;53.690;19.948;2023-04-07T07:29:44;100127.84;;;8.34;87.06
41467;BME280;27205;53.690;19.948;2023-04-07T07:34:48;100137.59;;;8.52;86.68
41467;BME280;27205;53.690;19.948;2023-04-07T07:39:51;100142.71;;;8.59;86.63
41467;BME280;27205;53.690;19.948;2023-04-07T07:44:55;100151.02;;;8.60;86.62
41467;BME280;27205;53.690;19.948;2023-04-07T07:49:59;100154.95;;;8.47;86.71
41467;BME280;27205;53.690;19.948;2023-04-07T07:55:03;100153.51;;;8.54;86.54
41467;BME280;27205;53.690;19.948;2023-04-07T08:00:07;100144.28;;;8.60;86.75
41467;BME280;27205;53.690;19.948;2023-04-07T08:05:10;100140.58;;;8.66;86.22
41467;BME280;27205;53.690;19.948;2023-04-07T08:10:14;100142.16;;;8.64;86.16
41467;BME280;27205;53.690;19.948;2023-04-07T08:15:18;100138.81;;;8.61;86.16
41467;BME280;27205;53.690;19.948;2023-04-07T08:20:22;100134.02;;;8.73;86.23
41467;BME280;27205;53.690;19.948;2023-04-07T08:25:27;100134.92;;;8.95;85.98
41467;BME280;27205;53.690;19.948;2023-04-07T08:30:31;100131.36;;;9.20;85.63
41467;BME280;27205;53.690;19.948;2023-04-07T08:35:34;100139.86;;;9.64;85.56
41467;BME280;27205;53.690;19.948;2023-04-07T08:40:38;100136.83;;;9.82;84.98
41467;BME280;27205;53.690;19.948;2023-04-07T08:45:42;100131.36;;;10.04;84.87
41467;BME280;27205;53.690;19.948;2023-04-07T08:50:48;100135.48;;;10.54;83.92
41467;BME280;27205;53.690;19.948;2023-04-07T08:55:55;100138.23;;;10.68;83.06
41467;BME280;27205;53.690;19.948;2023-04-07T09:00:58;100134.46;;;10.63;83.50
41467;BME280;27205;53.690;19.948;2023-04-07T09:06:03;100131.89;;;10.82;83.35
41467;BME280;27205;53.690;19.948;2023-04-07T09:11:06;100134.48;;;11.17;82.59
41467;BME280;27205;53.690;19.948;2023-04-07T09:16:10;100130.56;;;11.49;82.90
41467;BME280;27205;53.690;19.948;2023-04-07T09:21:16;100127.33;;;11.77;81.83
41467;BME280;27205;53.690;19.948;2023-04-07T09:26:27;100127.77;;;11.80;81.72
41467;BME280;27205;53.690;19.948;2023-04-07T09:31:48;100132.02;;;11.78;81.06
41467;BME280;27205;53.690;19.948;2023-04-07T09:36:53;100139.98;;;11.67;80.79
41467;BME280;27205;53.690;19.948;2023-04-07T09:41:57;100130.42;;;11.64;80.78
41467;BME280;27205;53.690;19.948;2023-04-07T09:47:01;100125.48;;;11.60;80.73
41467;BME280;27205;53.690;19.948;2023-04-07T09:52:04;100136.14;;;11.74;80.80
41467;BME280;27205;53.690;19.948;2023-04-07T09:57:10;100135.21;;;12.12;81.54
41467;BME280;27205;53.690;19.948;2023-04-07T10:02:14;100139.46;;;12.65;80.33
41467;BME280;27205;53.690;19.948;2023-04-07T10:07:18;100139.98;;;12.99;79.70
41467;BME280;27205;53.690;19.948;2023-04-07T10:12:21;100144.11;;;13.62;78.98
41467;BME280;27205;53.690;19.948;2023-04-07T10:17:27;100141.73;;;14.08;77.86
41467;BME280;27205;53.690;19.948;2023-04-07T10:22:32;100147.61;;;13.83;75.94
41467;BME280;27205;53.690;19.948;2023-04-07T10:27:43;100145.34;;;13.69;76.06
41467;BME280;27205;53.690;19.948;2023-04-07T10:32:53;100139.11;;;13.46;75.99
41467;BME280;27205;53.690;19.948;2023-04-07T10:43:10;100130.15;;;13.02;76.28
41467;BME280;27205;53.690;19.948;2023-04-07T10:48:15;100127.92;;;13.01;75.88
41467;BME280;27205;53.690;19.948;2023-04-07T10:53:18;100117.92;;;12.92;75.91
41467;BME280;27205;53.690;19.948;2023-04-07T10:58:31;100112.17;;;13.04;75.46
41467;BME280;27205;53.690;19.948;2023-04-07T11:03:39;100102.99;;;13.03;75.37
41467;BME280;27205;53.690;19.948;2023-04-07T11:08:46;100103.99;;;13.20;75.15
41467;BME280;27205;53.690;19.948;2023-04-07T11:13:51;100103.36;;;13.26;74.80
41467;BME280;27205;53.690;19.948;2023-04-07T11:18:56;100104.50;;;13.54;75.40
41467;BME280;27205;53.690;19.948;2023-04-07T11:23:59;100100.09;;;14.16;74.52
41467;BME280;27205;53.690;19.948;2023-04-07T11:29:03;100101.83;;;14.40;73.42
41467;BME280;27205;53.690;19.948;2023-04-07T11:34:06;100093.23;;;14.65;73.56
41467;BME280;27205;53.690;19.948;2023-04-07T11:39:20;100089.00;;;15.04;72.84
41467;BME280;27205;53.690;19.948;2023-04-07T11:44:24;100088.67;;;15.28;72.30
41467;BME280;27205;53.690;19.948;2023-04-07T11:49:30;100093.98;;;15.59;71.40
41467;BME280;27205;53.690;19.948;2023-04-07T11:54:45;100089.45;;;15.95;70.60
41467;BME280;27205;53.690;19.948;2023-04-07T12:00:05;100081.52;;;16.32;70.24
41467;BME280;27205;53.690;19.948;2023-04-07T12:05:09;100082.73;;;16.70;69.40
41467;BME280;27205;53.690;19.948;2023-04-07T12:10:24;100085.41;;;16.99;68.38
41467;BME280;27205;53.690;19.948;2023-04-07T12:15:35;100082.69;;;17.20;68.88
41467;BME280;27205;53.690;19.948;2023-04-07T12:20:41;100087.67;;;17.38;68.20
41467;BME280;27205;53.690;19.948;2023-04-07T12:26:23;100089.54;;;17.49;66.82
41467;BME280;27205;53.690;19.948;2023-04-07T12:31:43;100087.79;;;17.84;66.03
41467;BME280;27205;53.690;19.948;2023-04-07T12:36:47;100090.84;;;18.48;65.54
41467;BME280;27205;53.690;19.948;2023-04-07T12:41:51;100091.91;;;18.77;63.66
41467;BME280;27205;53.690;19.948;2023-04-07T12:46:55;100091.64;;;18.77;63.64
41467;BME280;27205;53.690;19.948;2023-04-07T12:51:58;100092.69;;;19.24;63.37
41467;BME280;27205;53.690;19.948;2023-04-07T12:57:02;100104.95;;;19.56;63.46
41467;BME280;27205;53.690;19.948;2023-04-07T13:02:06;100111.45;;;20.06;62.98
41467;BME280;27205;53.690;19.948;2023-04-07T13:07:11;100111.46;;;19.93;60.04
41467;BME280;27205;53.690;19.948;2023-04-07T13:12:15;100115.80;;;19.79;60.04
41467;BME280;27205;53.690;19.948;2023-04-07T13:17:18;100119.79;;;19.86;59.56
41467;BME280;27205;53.690;19.948;2023-04-07T13:22:22;100120.55;;;20.13;59.88
41467;BME280;27205;53.690;19.948;2023-04-07T13:27:26;100115.48;;;20.45;59.75
41467;BME280;27205;53.690;19.948;2023-04-07T13:32:30;100115.51;;;20.58;59.82
41467;BME280;27205;53.690;19.948;2023-04-07T13:37:34;100116.05;;;20.71;59.07
41467;BME280;27205;53.690;19.948;2023-04-07T13:42:37;100116.25;;;20.72;58.50
41467;BME280;27205;53.690;19.948;2023-04-07T13:47:41;100115.15;;;20.55;57.41
41467;BME280;27205;53.690;19.948;2023-04-07T13:52:45;100115.94;;;20.36;56.72
41467;BME280;27205;53.690;19.948;2023-04-07T13:57:49;100111.41;;;20.57;55.56
41467;BME280;27205;53.690;19.948;2023-04-07T14:02:52;100101.99;;;20.69;54.18
41467;BME280;27205;53.690;19.948;2023-04-07T14:07:58;100101.59;;;20.65;53.05
41467;BME280;27205;53.690;19.948;2023-04-07T14:13:01;100100.69;;;20.53;53.16
41467;BME280;27205;53.690;19.948;2023-04-07T14:18:05;100101.14;;;20.39;52.38
41467;BME280;27205;53.690;19.948;2023-04-07T14:23:09;100106.56;;;20.33;52.04
41467;BME280;27205;53.690;19.948;2023-04-07T14:28:12;100102.03;;;20.52;51.27
41467;BME280;27205;53.690;19.948;2023-04-07T14:33:16;100103.66;;;20.55;50.55
41467;BME280;27205;53.690;19.948;2023-04-07T14:38:19;100094.79;;;21.36;49.82
41467;BME280;27205;53.690;19.948;2023-04-07T14:43:26;100098.94;;;21.10;49.86
41467;BME280;27205;53.690;19.948;2023-04-07T14:48:30;100105.28;;;20.79;49.88
41467;BME280;27205;53.690;19.948;2023-04-07T14:53:34;100104.04;;;21.06;49.56
41467;BME280;27205;53.690;19.948;2023-04-07T14:58:38;100102.59;;;20.64;49.28
41467;BME280;27205;53.690;19.948;2023-04-07T15:03:43;100099.76;;;20.05;50.02
41467;BME280;27205;53.690;19.948;2023-04-07T15:08:46;100098.05;;;19.55;50.11
41467;BME280;27205;53.690;19.948;2023-04-07T15:13:50;100097.69;;;19.02;50.74
41467;BME280;27205;53.690;19.948;2023-04-07T15:18:54;100094.06;;;18.57;51.04
41467;BME280;27205;53.690;19.948;2023-04-07T15:23:57;100096.59;;;18.19;51.59
41467;BME280;27205;53.690;19.948;2023-04-07T15:29:00;100092.01;;;17.91;52.19
41467;BME280;27205;53.690;19.948;2023-04-07T15:34:04;100089.19;;;17.70;52.79
41467;BME280;27205;53.690;19.948;2023-04-07T15:39:08;100094.11;;;17.58;53.36
41467;BME280;27205;53.690;19.948;2023-04-07T15:44:16;100092.66;;;17.52;53.68
41467;BME280;27205;53.690;19.948;2023-04-07T15:49:20;100095.64;;;17.58;54.19
41467;BME280;27205;53.690;19.948;2023-04-07T15:54:28;100096.41;;;17.80;53.97
41467;BME280;27205;53.690;19.948;2023-04-07T15:59:32;100102.33;;;17.76;54.18
41467;BME280;27205;53.690;19.948;2023-04-07T16:04:35;100104.48;;;17.61;54.20
41467;BME280;27205;53.690;19.948;2023-04-07T16:09:39;100105.34;;;17.51;54.45
41467;BME280;27205;53.690;19.948;2023-04-07T16:14:42;100109.95;;;17.33;54.89
41467;BME280;27205;53.690;19.948;2023-04-07T16:19:46;100112.78;;;17.15;55.25
41467;BME280;27205;53.690;19.948;2023-04-07T16:24:49;100122.84;;;16.94;55.85
41467;BME280;27205;53.690;19.948;2023-04-07T16:29:53;100154.38;;;16.80;56.26
41467;BME280;27205;53.690;19.948;2023-04-07T16:34:56;100158.63;;;16.63;56.96
41467;BME280;27205;53.690;19.948;2023-04-07T16:40:00;100185.46;;;16.29;57.83
41467;BME280;27205;53.690;19.948;2023-04-07T16:45:04;100193.13;;;15.90;58.43
41467;BME280;27205;53.690;19.948;2023-04-07T16:50:08;100196.95;;;15.65;59.18
41467;BME280;27205;53.690;19.948;2023-04-07T16:55:12;100203.00;;;15.50;59.61
41467;BME280;27205;53.690;19.948;2023-04-07T17:00:15;100200.81;;;15.31;60.33
41467;BME280;27205;53.690;19.948;2023-04-07T17:05:19;100207.51;;;15.17;60.38
41467;BME280;27205;53.690;19.948;2023-04-07T17:10:23;100213.77;;;15.11;60.58
41467;BME280;27205;53.690;19.948;2023-04-07T17:15:26;100221.20;;;15.05;60.91
41467;BME280;27205;53.690;19.948;2023-04-07T17:20:30;100226.56;;;14.95;61.23
41467;BME280;27205;53.690;19.948;2023-04-07T17:25:33;100230.08;;;14.80;61.47
41467;BME280;27205;53.690;19.948;2023-04-07T17:30:37;100233.22;;;14.66;61.70
41467;BME280;27205;53.690;19.948;2023-04-07T17:35:40;100237.60;;;14.60;62.17
41467;BME280;27205;53.690;19.948;2023-04-07T17:40:44;100248.84;;;14.59;62.40
41467;BME280;27205;53.690;19.948;2023-04-07T17:45:47;100255.21;;;14.52;62.84
41467;BME280;27205;53.690;19.948;2023-04-07T17:50:51;100266.46;;;14.43;63.39
41467;BME280;27205;53.690;19.948;2023-04-07T17:55:54;100263.94;;;14.34;63.63
41467;BME280;27205;53.690;19.948;2023-04-07T18:00:58;100268.34;;;14.27;63.92
41467;BME280;27205;53.690;19.948;2023-04-07T18:06:02;100275.37;;;14.33;64.30
41467;BME280;27205;53.690;19.948;2023-04-07T18:11:05;100287.59;;;14.32;64.32
41467;BME280;27205;53.690;19.948;2023-04-07T18:16:09;100294.27;;;14.26;64.42
41467;BME280;27205;53.690;19.948;2023-04-07T18:21:13;100317.52;;;14.17;64.93
41467;BME280;27205;53.690;19.948;2023-04-07T18:26:17;100324.48;;;14.00;65.25
41467;BME280;27205;53.690;19.948;2023-04-07T18:31:21;100326.83;;;13.94;65.41
41467;BME280;27205;53.690;19.948;2023-04-07T18:36:24;100332.98;;;13.85;65.80
41467;BME280;27205;53.690;19.948;2023-04-07T18:41:29;100333.39;;;13.74;66.30
41467;BME280;27205;53.690;19.948;2023-04-07T18:46:33;100337.91;;;13.64;66.44
41467;BME280;27205;53.690;19.948;2023-04-07T18:51:37;100340.02;;;13.57;66.63
41467;BME280;27205;53.690;19.948;2023-04-07T18:56:41;100350.80;;;13.51;67.04
41467;BME280;27205;53.690;19.948;2023-04-07T19:01:44;100357.59;;;13.45;67.37
41467;BME280;27205;53.690;19.948;2023-04-07T19:06:51;100366.76;;;13.39;67.74
41467;BME280;27205;53.690;19.948;2023-04-07T19:11:54;100368.08;;;13.19;68.40
41467;BME280;27205;53.690;19.948;2023-04-07T19:16:59;100365.48;;;13.05;68.69
41467;BME280;27205;53.690;19.948;2023-04-07T19:22:03;100356.00;;;13.04;68.70
41467;BME280;27205;53.690;19.948;2023-04-07T19:27:07;100359.27;;;12.96;69.02
41467;BME280;27205;53.690;19.948;2023-04-07T19:32:11;100362.08;;;12.90;69.32
41467;BME280;27205;53.690;19.948;2023-04-07T19:37:14;100365.88;;;12.82;69.89
41467;BME280;27205;53.690;19.948;2023-04-07T19:42:19;100369.61;;;12.80;69.86
41467;BME280;27205;53.690;19.948;2023-04-07T19:47:31;100376.65;;;12.83;70.14
41467;BME280;27205;53.690;19.948;2023-04-07T19:52:35;100382.88;;;12.80;70.16
41467;BME280;27205;53.690;19.948;2023-04-07T19:57:41;100385.98;;;12.74;70.13
41467;BME280;27205;53.690;19.948;2023-04-07T20:02:45;100393.16;;;12.71;70.50
41467;BME280;27205;53.690;19.948;2023-04-07T20:07:48;100398.10;;;12.74;70.31
41467;BME280;27205;53.690;19.948;2023-04-07T20:12:52;100397.05;;;12.78;70.46
41467;BME280;27205;53.690;19.948;2023-04-07T20:17:56;100407.82;;;12.79;70.58
41467;BME280;27205;53.690;19.948;2023-04-07T20:23:00;100414.73;;;12.67;70.86
41467;BME280;27205;53.690;19.948;2023-04-07T20:28:04;100419.89;;;12.61;70.98
41467;BME280;27205;53.690;19.948;2023-04-07T20:33:09;100423.59;;;12.66;70.95
41467;BME280;27205;53.690;19.948;2023-04-07T20:38:14;100431.84;;;12.68;71.07
41467;BME280;27205;53.690;19.948;2023-04-07T20:43:18;100435.48;;;12.65;71.05
41467;BME280;27205;53.690;19.948;2023-04-07T20:48:24;100441.81;;;12.53;71.34
41467;BME280;27205;53.690;19.948;2023-04-07T20:53:27;100451.38;;;12.43;71.81
41467;BME280;27205;53.690;19.948;2023-04-07T20:58:31;100455.96;;;12.32;71.46
41467;BME280;27205;53.690;19.948;2023-04-07T21:03:34;100464.91;;;12.05;71.61
41467;BME280;27205;53.690;19.948;2023-04-07T21:15:51;100474.02;;;11.75;71.05
41467;BME280;27205;53.690;19.948;2023-04-07T21:20:58;100479.67;;;11.67;70.77
41467;BME280;27205;53.690;19.948;2023-04-07T21:26:02;100482.92;;;11.51;71.22
41467;BME280;27205;53.690;19.948;2023-04-07T21:31:06;100481.33;;;11.37;70.94
41467;BME280;27205;53.690;19.948;2023-04-07T21:36:18;100480.03;;;11.19;70.88
41467;BME280;27205;53.690;19.948;2023-04-07T21:41:21;100478.42;;;10.96;70.70
41467;BME280;27205;53.690;19.948;2023-04-07T21:46:24;100477.31;;;10.73;70.93
41467;BME280;27205;53.690;19.948;2023-04-07T21:51:28;100479.53;;;10.60;71.14
41467;BME280;27205;53.690;19.948;2023-04-07T21:56:32;100483.66;;;10.46;70.96
41467;BME280;27205;53.690;19.948;2023-04-07T22:01:35;100486.50;;;10.32;71.15
41467;BME280;27205;53.690;19.948;2023-04-07T22:06:39;100490.07;;;10.18;70.93
41467;BME280;27205;53.690;19.948;2023-04-07T22:11:43;100488.06;;;10.05;71.11
41467;BME280;27205;53.690;19.948;2023-04-07T22:16:47;100487.77;;;9.94;71.02
41467;BME280;27205;53.690;19.948;2023-04-07T22:22:02;100486.92;;;9.83;71.04
41467;BME280;27205;53.690;19.948;2023-04-07T22:27:06;100487.44;;;9.70;71.06
41467;BME280;27205;53.690;19.948;2023-04-07T22:32:09;100494.06;;;9.58;71.01
41467;BME280;27205;53.690;19.948;2023-04-07T22:37:13;100495.14;;;9.48;70.96
41467;BME280;27205;53.690;19.948;2023-04-07T22:42:16;100502.89;;;9.34;71.24
41467;BME280;27205;53.690;19.948;2023-04-07T22:47:20;100512.93;;;9.14;71.07
41467;BME280;27205;53.690;19.948;2023-04-07T22:52:26;100520.52;;;9.00;71.01
41467;BME280;27205;53.690;19.948;2023-04-07T22:57:30;100522.97;;;8.88;71.15
41467;BME280;27205;53.690;19.948;2023-04-07T23:02:33;100526.09;;;8.77;71.14
41467;BME280;27205;53.690;19.948;2023-04-07T23:07:38;100525.64;;;8.67;71.08
41467;BME280;27205;53.690;19.948;2023-04-07T23:12:41;100527.77;;;8.60;71.32
41467;BME280;27205;53.690;19.948;2023-04-07T23:17:45;100528.05;;;8.54;71.56
41467;BME280;27205;53.690;19.948;2023-04-07T23:22:48;100537.77;;;8.44;71.70
41467;BME280;27205;53.690;19.948;2023-04-07T23:27:52;100535.20;;;8.41;71.59
41467;BME280;27205;53.690;19.948;2023-04-07T23:32:55;100537.57;;;8.36;71.73
41467;BME280;27205;53.690;19.948;2023-04-07T23:37:59;100539.64;;;8.26;71.78
41467;BME280;27205;53.690;19.948;2023-04-07T23:43:03;100539.65;;;8.22;71.33
41467;BME280;27205;53.690;19.948;2023-04-07T23:48:06;100537.71;;;8.19;71.72
41467;BME280;27205;53.690;19.948;2023-04-07T23:53:09;100539.44;;;8.13;71.69
41467;BME280;27205;53.690;19.948;2023-04-07T23:58:13;100541.42;;;8.07;71.78
